createdAt,value
2019-05-30T00:00:16.978Z,25.80
2019-05-30T00:02:42.690Z,28.02
2019-05-30T00:05:13.677Z,26.77
2019-05-30T00:07:44.363Z,31.75
2019-05-30T00:10:15.227Z,30.10
2019-05-30T00:12:45.913Z,23.25
2019-05-30T00:15:17.031Z,29.37
2019-05-30T00:17:47.704Z,25.35
2019-05-30T00:20:18.323Z,29.77
2019-05-30T00:22:49.049Z,22.00
2019-05-30T00:25:19.903Z,28.05
2019-05-30T00:27:50.745Z,27.62
2019-05-30T00:30:24.750Z,28.00
2019-05-30T00:32:53.759Z,24.55
2019-05-30T00:35:24.492Z,28.87
2019-05-30T00:37:55.645Z,29.23
2019-05-30T00:40:26.178Z,23.42
2019-05-30T00:42:57.810Z,25.05
2019-05-30T00:45:28.403Z,25.12
2019-05-30T00:48:00.052Z,24.18
2019-05-30T00:50:30.878Z,23.75
2019-05-30T00:53:02.849Z,21.17
2019-05-30T00:55:33.515Z,26.35
2019-05-30T00:58:04.830Z,22.62
2019-05-30T01:00:43.549Z,23.73
2019-05-30T01:03:09.189Z,23.52
2019-05-30T01:05:39.983Z,27.48
2019-05-30T01:08:10.654Z,20.88
2019-05-30T01:10:41.594Z,23.60
2019-05-30T01:13:12.214Z,16.27
2019-05-30T01:15:43.083Z,18.25
2019-05-30T01:18:13.679Z,16.80
2019-05-30T01:20:45.140Z,21.73
2019-05-30T01:23:15.735Z,16.02
2019-05-30T01:25:46.302Z,20.12
2019-05-30T01:28:17.066Z,22.02
2019-05-30T01:30:59.524Z,14.00
2019-05-30T01:33:20.017Z,19.77
2019-05-30T01:35:50.630Z,21.80
2019-05-30T01:38:21.288Z,21.12
2019-05-30T01:40:51.860Z,16.90
2019-05-30T01:43:22.394Z,18.40
2019-05-30T01:45:52.971Z,14.60
2019-05-30T01:48:23.856Z,16.62
2019-05-30T01:50:54.529Z,16.93
2019-05-30T01:53:25.162Z,13.13
2019-05-30T01:55:55.899Z,15.58
2019-05-30T01:58:26.652Z,14.80
2019-05-30T02:00:58.657Z,12.95
2019-05-30T02:03:29.345Z,14.28
2019-05-30T02:06:01.043Z,13.65
2019-05-30T02:08:31.718Z,16.80
2019-05-30T02:11:03.355Z,13.43
2019-05-30T02:13:33.984Z,17.35
2019-05-30T02:16:05.725Z,15.13
2019-05-30T02:18:36.453Z,12.68
2019-05-30T02:21:07.906Z,20.68
2019-05-30T02:23:38.507Z,14.87
2019-05-30T02:26:10.396Z,14.50
2019-05-30T02:28:41.212Z,14.58
2019-05-30T02:31:12.943Z,14.18
2019-05-30T02:33:43.583Z,13.03
2019-05-30T02:36:14.298Z,13.98
2019-05-30T02:38:45.025Z,11.35
2019-05-30T02:41:17.173Z,14.40
2019-05-30T02:43:47.804Z,15.55
2019-05-30T02:46:18.270Z,13.20
2019-05-30T02:48:58.719Z,12.80
2019-05-30T02:51:21.075Z,16.65
2019-05-30T02:53:51.539Z,16.23
2019-05-30T02:56:22.154Z,12.58
2019-05-30T02:58:52.727Z,10.80
2019-05-30T03:01:23.378Z,11.80
2019-05-30T03:03:53.990Z,12.95
2019-05-30T03:06:24.640Z,11.53
2019-05-30T03:08:55.281Z,13.55
2019-05-30T03:11:27.324Z,11.75
2019-05-30T03:13:58.318Z,16.90
2019-05-30T03:16:28.793Z,14.75
2019-05-30T03:18:59.726Z,12.98
2019-05-30T03:21:30.434Z,11.63
2019-05-30T03:24:02.795Z,11.15
2019-05-30T03:26:33.592Z,17.40
2019-05-30T03:29:05.568Z,14.75
2019-05-30T03:31:37.231Z,11.75
2019-05-30T03:34:16.437Z,14.35
2019-05-30T03:36:40.256Z,15.25
2019-05-30T03:39:12.516Z,15.35
2019-05-30T03:41:42.975Z,14.45
2019-05-30T03:44:15.366Z,12.00
2019-05-30T03:46:50.020Z,10.05
2019-05-30T03:49:24.124Z,15.63
2019-05-30T03:51:57.918Z,15.38
2019-05-30T03:54:28.838Z,14.47
2019-05-30T03:57:18.235Z,10.40
2019-05-30T03:59:54.327Z,9.40
2019-05-30T04:02:58.121Z,10.95
2019-05-30T04:05:33.935Z,15.68
2019-05-30T04:08:09.447Z,16.35
2019-05-30T04:10:42.882Z,9.70
2019-05-30T04:13:26.555Z,11.83
2019-05-30T04:15:57.286Z,8.08
2019-05-30T04:18:27.862Z,14.03
2019-05-30T04:20:58.292Z,12.55
2019-05-30T04:23:28.835Z,11.97
2019-05-30T04:26:00.936Z,11.43
2019-05-30T04:28:31.810Z,14.85
2019-05-30T04:31:03.355Z,13.48
2019-05-30T04:33:34.077Z,10.80
2019-05-30T04:36:04.567Z,13.25
2019-05-30T04:38:35.157Z,8.48
2019-05-30T04:41:05.729Z,7.80
2019-05-30T04:43:36.249Z,13.88
2019-05-30T04:46:06.990Z,11.88
2019-05-30T04:48:37.672Z,8.13
2019-05-30T04:51:10.027Z,11.30
2019-05-30T04:53:40.763Z,10.78
2019-05-30T04:56:12.617Z,7.55
2019-05-30T04:58:43.321Z,7.17
2019-05-30T05:01:15.501Z,7.67
2019-05-30T05:03:46.882Z,11.60
2019-05-30T05:06:17.952Z,7.58
2019-05-30T05:08:48.968Z,12.15
2019-05-30T05:11:23.032Z,7.80
2019-05-30T05:13:51.746Z,11.15
2019-05-30T05:16:33.987Z,6.55
2019-05-30T05:18:54.419Z,6.85
2019-05-30T05:21:27.470Z,10.15
2019-05-30T05:23:58.368Z,7.30
2019-05-30T05:26:28.974Z,10.20
2019-05-30T05:28:59.529Z,6.55
2019-05-30T05:31:30.046Z,8.33
2019-05-30T05:34:01.612Z,10.05
2019-05-30T05:36:32.136Z,8.25
2019-05-30T05:39:02.699Z,9.33
2019-05-30T05:41:33.448Z,7.33
2019-05-30T05:44:04.022Z,6.62
2019-05-30T05:46:34.651Z,10.10
2019-05-30T05:49:05.319Z,7.00
2019-05-30T05:51:35.891Z,7.90
2019-05-30T05:54:06.478Z,8.45
2019-05-30T05:56:37.035Z,6.97
2019-05-30T05:59:07.522Z,6.03
2019-05-30T06:01:38.022Z,5.55
2019-05-30T06:04:13.096Z,6.25
2019-05-30T06:06:41.026Z,5.00
2019-05-30T06:09:11.918Z,7.67
2019-05-30T06:11:42.441Z,5.97
2019-05-30T06:14:13.104Z,9.13
2019-05-30T06:16:43.897Z,6.05
2019-05-30T06:19:17.155Z,5.62
2019-05-30T06:21:53.873Z,6.83
2019-05-30T06:24:21.518Z,4.70
2019-05-30T06:26:52.025Z,8.63
2019-05-30T06:29:22.560Z,6.28
2019-05-30T06:31:54.088Z,7.00
2019-05-30T06:34:32.727Z,5.90
2019-05-30T06:36:57.166Z,6.65
2019-05-30T06:39:27.839Z,5.95
2019-05-30T06:41:58.408Z,6.90
2019-05-30T06:44:30.237Z,4.58
2019-05-30T06:47:00.862Z,4.53
2019-05-30T06:49:31.384Z,11.20
2019-05-30T06:52:02.170Z,4.47
2019-05-30T06:54:33.713Z,6.60
2019-05-30T06:57:05.378Z,5.47
2019-05-30T06:59:35.996Z,6.28
2019-05-30T07:02:06.510Z,7.92
2019-05-30T07:04:50.975Z,5.42
2019-05-30T07:07:09.545Z,5.55
2019-05-30T07:09:40.303Z,7.22
2019-05-30T07:12:11.991Z,7.95
2019-05-30T07:14:43.925Z,4.62
2019-05-30T07:17:15.521Z,4.53
2019-05-30T07:19:46.059Z,4.03
2019-05-30T07:22:16.733Z,8.93
2019-05-30T07:24:47.235Z,4.45
2019-05-30T07:27:18.056Z,8.65
2019-05-30T07:29:48.874Z,8.53
2019-05-30T07:32:19.373Z,7.20
2019-05-30T07:35:03.419Z,6.17
2019-05-30T07:37:24.363Z,4.35
2019-05-30T07:39:55.033Z,4.45
2019-05-30T07:42:26.549Z,8.43
2019-05-30T07:44:57.272Z,7.30
2019-05-30T07:47:28.115Z,4.28
2019-05-30T07:49:58.686Z,6.83
2019-05-30T07:52:30.288Z,7.08
2019-05-30T07:55:02.156Z,7.72
2019-05-30T07:57:32.959Z,4.47
2019-05-30T08:00:03.900Z,4.53
2019-05-30T08:02:35.761Z,5.70
2019-05-30T09:24:09.849Z,5.08
2019-05-30T09:26:44.178Z,3.90
2019-05-30T09:29:16.545Z,3.47
2019-05-30T09:31:47.057Z,3.52
2019-05-30T09:34:18.315Z,4.67
2019-05-30T09:36:49.190Z,4.90
2019-05-30T09:39:20.384Z,3.92
2019-05-30T09:41:50.901Z,7.28
2019-05-30T09:44:21.414Z,5.70
2019-05-30T09:46:52.216Z,5.58
2019-05-30T09:49:24.342Z,2.98
2019-05-30T09:51:54.953Z,4.53
2019-05-30T09:54:25.681Z,2.45
2019-05-30T09:56:57.313Z,6.25
2019-05-30T09:59:28.358Z,5.87
2019-05-30T10:01:58.930Z,5.72
2019-05-30T10:04:29.564Z,4.47
2019-05-30T10:07:00.160Z,2.80
2019-05-30T10:09:30.705Z,6.12
2019-05-30T10:13:52.855Z,6.25
2019-05-30T10:16:23.537Z,4.05
2019-05-30T10:18:57.012Z,6.45
2019-05-30T10:21:28.116Z,4.62
2019-05-30T10:23:59.359Z,8.88
2019-05-30T10:28:14.097Z,9.13
2019-05-30T10:32:13.115Z,8.63
2019-05-30T10:35:01.537Z,8.15
2019-05-30T10:37:32.100Z,5.10
2019-05-30T10:40:03.636Z,7.40
2019-05-30T10:42:35.163Z,5.33
2019-05-30T10:45:06.904Z,4.85
2019-05-30T10:47:37.611Z,4.60
2019-05-30T10:50:10.641Z,4.35
2019-05-30T10:52:41.719Z,3.98
2019-05-30T10:55:14.504Z,8.33
2019-05-30T10:57:47.012Z,5.78
2019-05-30T11:00:19.532Z,5.30
2019-05-30T11:02:51.237Z,5.85
2019-05-30T11:05:23.182Z,4.30
2019-05-30T11:08:06.241Z,7.33
2019-05-30T11:10:38.943Z,7.55
2019-05-30T11:13:12.240Z,4.30
2019-05-30T11:15:44.478Z,5.42
2019-05-30T11:18:16.201Z,4.80
2019-05-30T11:20:47.826Z,5.87
2019-05-30T11:23:18.979Z,7.78
2019-05-30T11:25:50.477Z,8.43
2019-05-30T11:28:22.757Z,5.12
2019-05-30T11:30:54.775Z,5.50
2019-05-30T11:33:26.796Z,5.80
2019-05-30T11:35:57.510Z,6.58
2019-05-30T11:38:28.117Z,4.95
2019-05-30T11:41:01.046Z,5.15
2019-05-30T11:43:34.058Z,4.97
2019-05-30T11:46:04.785Z,3.70
2019-05-30T11:48:35.442Z,6.20
2019-05-30T11:51:06.692Z,7.55
2019-05-30T11:53:37.191Z,8.63
2019-05-30T11:56:08.912Z,4.33
2019-05-30T11:58:39.490Z,14.68
2019-05-30T12:01:10.106Z,3.37
2019-05-30T12:03:41.819Z,5.90
2019-05-30T12:06:12.337Z,6.08
2019-05-30T12:08:42.912Z,6.55
2019-05-30T12:11:13.370Z,7.12
2019-05-30T12:13:45.409Z,6.03
2019-05-30T12:16:16.231Z,3.62
2019-05-30T12:18:47.044Z,4.17
2019-05-30T12:21:18.950Z,5.35
2019-05-30T12:23:49.731Z,4.58
2019-05-30T12:26:20.403Z,6.50
2019-05-30T12:28:54.114Z,5.78
2019-05-30T12:31:24.902Z,3.85
2019-05-30T12:33:56.244Z,3.65
2019-05-30T12:36:28.049Z,8.53
2019-05-30T12:38:58.851Z,9.00
2019-05-30T12:41:29.842Z,9.05
2019-05-30T12:44:01.326Z,5.87
2019-05-30T12:46:32.540Z,6.67
2019-05-30T12:49:03.684Z,6.67
2019-05-30T12:51:35.010Z,4.97
2019-05-30T12:54:08.639Z,6.42
2019-05-30T12:56:45.257Z,7.50
2019-05-30T13:01:56.782Z,5.75
2019-05-30T13:04:34.112Z,14.45
2019-05-30T13:07:18.909Z,8.35
2019-05-30T13:09:51.740Z,4.55
2019-05-30T13:12:25.638Z,5.37
2019-05-30T13:15:04.035Z,4.42
2019-05-30T13:17:34.990Z,4.87
2019-05-30T13:20:08.741Z,7.83
2019-05-30T13:22:44.489Z,7.62
2019-05-30T13:25:19.226Z,3.75
2019-05-30T13:27:50.392Z,6.80
2019-05-30T13:30:21.358Z,6.00
2019-05-30T13:32:52.907Z,8.08
2019-05-30T13:35:23.851Z,5.53
2019-05-30T13:37:58.961Z,4.67
2019-05-30T13:40:30.586Z,5.15
2019-05-30T13:43:03.937Z,5.10
2019-05-30T13:45:39.710Z,8.55
2019-05-30T13:48:10.739Z,5.45
2019-05-30T13:50:43.005Z,5.58
2019-05-30T13:53:13.614Z,5.00
2019-05-30T13:55:44.294Z,9.13
2019-05-30T13:58:19.645Z,3.62
2019-05-30T14:00:51.187Z,8.45
2019-05-30T14:03:22.556Z,7.05
2019-05-30T14:05:56.287Z,6.80
2019-05-30T14:08:40.745Z,4.83
2019-05-30T14:11:02.495Z,7.50
2019-05-30T14:13:33.634Z,5.67
2019-05-30T14:16:04.851Z,4.08
2019-05-30T14:18:35.599Z,7.95
2019-05-30T14:21:09.929Z,4.50
2019-05-30T14:23:40.543Z,3.92
2019-05-30T14:26:11.618Z,9.50
2019-05-30T14:28:42.680Z,9.10
2019-05-30T14:31:13.614Z,5.30
2019-05-30T14:33:46.315Z,4.58
2019-05-30T14:36:16.963Z,11.45
2019-05-30T14:38:57.894Z,6.40
2019-05-30T14:41:20.437Z,7.65
2019-05-30T14:43:52.156Z,6.83
2019-05-30T14:46:25.258Z,11.15
2019-05-30T14:48:56.002Z,14.78
2019-05-30T14:51:26.901Z,7.33
2019-05-30T14:53:58.525Z,7.33
2019-05-30T14:56:30.144Z,5.62
2019-05-30T14:59:01.222Z,6.33
2019-05-30T15:01:31.888Z,5.83
2019-05-30T15:04:02.651Z,8.93
2019-05-30T15:06:33.319Z,4.65
2019-05-30T15:09:15.304Z,8.65
2019-05-30T15:11:37.384Z,7.75
2019-05-30T15:14:08.756Z,9.45
2019-05-30T15:16:39.412Z,6.55
2019-05-30T15:19:10.422Z,5.58
2019-05-30T15:21:41.087Z,9.98
2019-05-30T15:24:12.829Z,11.00
2019-05-30T15:26:44.786Z,8.33
2019-05-30T15:29:16.312Z,8.93
2019-05-30T15:31:49.197Z,9.60
2019-05-30T15:34:19.897Z,3.30
2019-05-30T15:36:50.654Z,6.05
2019-05-30T15:39:32.422Z,7.50
2019-05-30T15:41:53.698Z,4.45
2019-05-30T15:44:24.249Z,8.35
2019-05-30T15:46:55.777Z,8.85
2019-05-30T15:49:26.354Z,6.90
2019-05-30T15:51:57.253Z,5.30
2019-05-30T15:54:27.916Z,6.65
2019-05-30T15:56:58.464Z,6.62
2019-05-30T15:59:28.950Z,7.37
2019-05-30T16:02:01.404Z,7.87
2019-05-30T16:04:31.720Z,12.93
2019-05-30T16:07:02.241Z,9.18
2019-05-30T16:09:46.284Z,5.80
2019-05-30T16:12:05.375Z,11.63
2019-05-30T16:14:37.189Z,10.43
2019-05-30T16:17:08.003Z,5.83
2019-05-30T16:19:38.695Z,8.20
2019-05-30T16:22:10.531Z,7.47
2019-05-30T16:24:41.202Z,8.35
2019-05-30T16:27:11.918Z,8.73
2019-05-30T16:29:42.487Z,13.68
2019-05-30T16:32:13.776Z,6.70
2019-05-30T16:34:44.447Z,5.25
2019-05-30T16:37:16.064Z,7.45
2019-05-30T16:40:04.390Z,7.42
2019-05-30T16:42:22.297Z,11.55
2019-05-30T16:44:52.846Z,9.73
2019-05-30T16:47:23.775Z,12.50
2019-05-30T16:49:54.563Z,8.18
2019-05-30T16:52:25.792Z,7.22
2019-05-30T16:54:56.429Z,9.65
2019-05-30T16:57:27.372Z,5.28
2019-05-30T16:59:58.057Z,7.50
2019-05-30T17:02:28.664Z,4.67
2019-05-30T17:04:59.199Z,8.13
2019-05-30T17:07:29.844Z,7.15
2019-05-30T17:10:00.453Z,9.10
2019-05-30T17:12:31.041Z,9.80
2019-05-30T17:15:03.600Z,8.68
2019-05-30T17:17:34.202Z,6.35
2019-05-30T17:20:05.346Z,10.48
2019-05-30T17:22:35.933Z,4.95
2019-05-30T17:25:06.908Z,8.28
2019-05-30T17:27:37.525Z,7.37
2019-05-30T17:30:09.181Z,6.92
2019-05-30T17:32:39.744Z,5.12
2019-05-30T17:35:11.436Z,7.50
2019-05-30T17:37:42.026Z,6.62
2019-05-30T17:40:14.546Z,7.17
2019-05-30T17:42:45.300Z,7.28
2019-05-30T17:45:16.340Z,11.43
2019-05-30T17:47:46.979Z,6.35
2019-05-30T17:50:19.691Z,6.58
2019-05-30T17:52:50.392Z,11.10
2019-05-30T17:55:23.853Z,10.50
2019-05-30T17:57:54.479Z,8.88
2019-05-30T18:00:26.450Z,11.97
2019-05-30T18:02:58.049Z,7.90
2019-05-30T18:05:30.988Z,7.83
2019-05-30T18:08:02.675Z,7.80
2019-05-30T18:10:34.669Z,10.70
2019-05-30T18:13:05.576Z,7.97
2019-05-30T18:15:36.063Z,13.18
2019-05-30T18:18:07.386Z,11.25
2019-05-30T18:20:48.467Z,11.48
2019-05-30T18:23:12.571Z,11.35
2019-05-30T18:25:43.214Z,13.65
2019-05-30T18:28:13.772Z,12.20
2019-05-30T18:30:45.099Z,11.73
2019-05-30T18:33:16.419Z,15.25
2019-05-30T18:35:55.626Z,11.60
2019-05-30T18:38:28.402Z,14.43
2019-05-30T18:41:11.004Z,21.10
2019-05-30T18:43:36.860Z,12.37
2019-05-30T18:46:07.664Z,12.58
2019-05-30T18:48:38.596Z,12.95
2019-05-30T18:51:09.984Z,10.58
2019-05-30T18:53:40.844Z,14.45
2019-05-30T18:56:11.458Z,13.25
2019-05-30T18:58:42.141Z,11.50
2019-05-30T19:01:14.879Z,12.47
2019-05-30T19:03:46.686Z,9.25
2019-05-30T19:06:17.679Z,13.48
2019-05-30T19:08:48.395Z,11.18
2019-05-30T19:11:28.209Z,13.68
2019-05-30T19:13:54.653Z,12.13
2019-05-30T19:16:28.489Z,18.12
2019-05-30T19:19:00.524Z,9.15
2019-05-30T19:21:32.167Z,14.13
2019-05-30T19:24:04.122Z,16.32
2019-05-30T19:26:34.905Z,16.67
2019-05-30T19:29:05.795Z,10.45
2019-05-30T19:31:37.008Z,12.35
2019-05-30T19:34:09.256Z,13.38
2019-05-30T19:36:40.679Z,14.45
2019-05-30T19:39:11.250Z,19.23
2019-05-30T19:41:56.398Z,13.32
2019-05-30T19:44:14.016Z,13.00
2019-05-30T19:46:44.878Z,17.65
2019-05-30T19:49:15.488Z,17.32
2019-05-30T19:51:47.693Z,13.10
2019-05-30T19:54:18.341Z,16.95
2019-05-30T19:56:49.262Z,17.35
2019-05-30T19:59:19.808Z,16.27
2019-05-30T20:01:50.370Z,13.93
2019-05-30T20:04:20.958Z,14.10
2019-05-30T20:06:51.509Z,11.00
2019-05-30T20:09:22.239Z,11.65
2019-05-30T20:12:02.651Z,14.98
2019-05-30T20:14:25.147Z,14.10
2019-05-30T20:16:55.707Z,16.17
2019-05-30T20:19:26.389Z,15.93
2019-05-30T20:21:57.269Z,14.58
2019-05-30T20:24:28.774Z,18.57
2019-05-30T20:26:59.260Z,14.07
2019-05-30T20:29:29.970Z,19.65
2019-05-30T20:32:01.704Z,12.30
2019-05-30T20:34:32.593Z,14.15
2019-05-30T20:37:05.882Z,14.05
2019-05-30T20:39:36.633Z,17.70
2019-05-30T20:42:18.927Z,13.15
2019-05-30T20:44:39.462Z,16.00
2019-05-30T20:47:10.123Z,12.43
2019-05-30T20:49:41.230Z,15.05
2019-05-30T20:52:14.487Z,15.98
2019-05-30T20:54:45.571Z,16.40
2019-05-30T20:57:17.136Z,15.05
2019-05-30T20:59:47.970Z,12.80
2019-05-30T21:02:18.934Z,17.07
2019-05-30T21:04:51.901Z,11.18
2019-05-30T21:07:24.182Z,12.63
2019-05-30T21:09:56.037Z,12.25
2019-05-30T21:12:36.829Z,14.30
2019-05-30T21:15:03.141Z,15.80
2019-05-30T21:17:35.705Z,12.15
2019-05-30T21:20:10.953Z,16.20
2019-05-30T21:22:40.220Z,14.40
2019-05-30T21:25:11.364Z,14.00
2019-05-30T21:27:42.990Z,10.75
2019-05-30T21:30:14.123Z,12.65
2019-05-30T21:32:46.422Z,18.00
2019-05-30T21:35:17.626Z,15.63
2019-05-30T21:37:48.447Z,12.47
2019-05-30T21:40:19.305Z,13.72
2019-05-30T21:43:04.766Z,14.40
2019-05-30T21:45:24.760Z,16.67
2019-05-30T21:47:55.608Z,15.30
2019-05-30T21:50:30.424Z,13.35
2019-05-30T21:53:02.793Z,17.55
2019-05-30T21:55:34.611Z,12.30
2019-05-30T21:58:05.288Z,17.12
2019-05-30T22:01:16.708Z,17.10
2019-05-30T22:03:48.731Z,14.98
2019-05-30T22:06:19.491Z,17.55
2019-05-30T22:08:51.556Z,13.60
2019-05-30T22:11:22.644Z,15.65
2019-05-30T22:13:53.253Z,15.78
2019-05-30T22:16:24.027Z,18.87
2019-05-30T22:18:54.516Z,16.20
2019-05-30T22:21:25.158Z,24.75
2019-05-30T22:23:55.691Z,16.67
2019-05-30T22:26:26.432Z,17.50
2019-05-30T22:28:56.990Z,19.57
2019-05-30T22:31:27.578Z,15.38
2019-05-30T22:33:58.103Z,23.07
2019-05-30T22:36:28.579Z,17.30
2019-05-30T22:38:59.018Z,19.57
2019-05-30T22:41:29.580Z,17.30
2019-05-30T22:44:00.118Z,22.17
2019-05-30T22:46:30.627Z,18.75
2019-05-30T22:49:01.201Z,15.25
2019-05-30T22:51:31.736Z,15.70
2019-05-30T22:54:02.183Z,22.00
2019-05-30T22:56:32.830Z,13.80
2019-05-30T22:59:03.248Z,19.85
2019-05-30T23:01:33.727Z,13.25
2019-05-30T23:04:04.654Z,19.57
2019-05-30T23:06:35.159Z,20.70
2019-05-30T23:09:07.556Z,26.10
2019-05-30T23:11:38.150Z,17.70
2019-05-30T23:14:10.026Z,19.98
2019-05-30T23:16:40.569Z,18.30
2019-05-30T23:19:11.093Z,16.45
2019-05-30T23:21:41.659Z,14.45
2019-05-30T23:24:12.338Z,22.30
2019-05-30T23:26:45.177Z,16.23
2019-05-30T23:29:15.964Z,21.30
2019-05-30T23:31:47.919Z,15.20
2019-05-30T23:34:18.469Z,24.95
2019-05-30T23:36:50.425Z,15.63
2019-05-30T23:39:21.384Z,25.37
2019-05-30T23:41:52.955Z,27.37
2019-05-30T23:44:23.562Z,16.97
2019-05-30T23:46:55.454Z,15.10
2019-05-30T23:49:28.641Z,19.77
2019-05-30T23:52:00.372Z,22.13
2019-05-30T23:54:32.051Z,24.27
2019-05-30T23:57:02.614Z,19.65
2019-05-30T23:59:33.235Z,20.23
